createdAt,value
2019-03-04T00:01:33.463Z,2.80
2019-03-04T00:04:00.052Z,2.70
2019-03-04T00:06:26.590Z,2.27
2019-03-04T00:08:53.263Z,2.40
2019-03-04T00:11:19.888Z,2.90
2019-03-04T00:13:47.053Z,2.20
2019-03-04T00:16:13.606Z,2.10
2019-03-04T00:18:40.287Z,3.53
2019-03-04T00:21:06.942Z,2.83
2019-03-04T00:23:33.842Z,2.40
2019-03-04T00:26:00.362Z,2.37
2019-03-04T00:28:26.954Z,2.43
2019-03-04T00:30:54.142Z,2.63
2019-03-04T00:33:20.806Z,3.10
2019-03-04T00:35:47.359Z,2.70
2019-03-04T00:38:13.980Z,2.60
2019-03-04T00:40:40.593Z,2.43
2019-03-04T00:43:07.145Z,2.10
2019-03-04T00:45:33.799Z,2.30
2019-03-04T00:48:00.717Z,2.30
2019-03-04T00:50:27.318Z,2.63
2019-03-04T00:52:53.873Z,3.47
2019-03-04T00:55:20.671Z,2.63
2019-03-04T00:57:47.276Z,2.40
2019-03-04T01:00:17.773Z,2.70
2019-03-04T01:02:45.498Z,2.93
2019-03-04T01:05:12.177Z,2.07
2019-03-04T01:07:39.993Z,2.23
2019-03-04T01:10:06.734Z,2.20
2019-03-04T01:12:33.417Z,1.97
2019-03-04T01:15:00.219Z,2.70
2019-03-04T01:17:26.819Z,2.57
2019-03-04T01:19:53.799Z,2.07
2019-03-04T01:22:21.695Z,1.93
2019-03-04T01:24:48.351Z,2.10
2019-03-04T01:27:15.005Z,2.20
2019-03-04T01:29:42.379Z,1.97
2019-03-04T01:32:08.956Z,1.90
2019-03-04T01:34:35.722Z,1.80
2019-03-04T01:37:02.502Z,2.10
2019-03-04T01:39:29.193Z,1.93
2019-03-04T01:41:55.742Z,1.73
2019-03-04T01:44:25.553Z,1.67
2019-03-04T01:46:52.246Z,1.67
2019-03-04T01:49:18.840Z,1.70
2019-03-04T01:51:45.701Z,1.90
2019-03-04T01:54:12.427Z,1.57
2019-03-04T01:56:39.403Z,1.90
2019-03-04T01:59:05.998Z,2.13
2019-03-04T02:01:32.618Z,1.40
2019-03-04T02:03:59.593Z,1.60
2019-03-04T02:06:26.441Z,1.73
2019-03-04T02:08:52.963Z,1.50
2019-03-04T02:11:19.581Z,1.30
2019-03-04T02:13:46.223Z,1.80
2019-03-04T02:16:13.091Z,1.50
2019-03-04T02:18:40.896Z,1.10
2019-03-04T02:21:08.012Z,1.97
2019-03-04T02:23:34.692Z,1.10
2019-03-04T02:26:09.870Z,1.40
2019-03-04T02:28:36.685Z,1.20
2019-03-04T02:31:03.796Z,1.70
2019-03-04T02:33:30.573Z,1.40
2019-03-04T02:35:57.186Z,1.57
2019-03-04T02:38:23.912Z,1.30
2019-03-04T02:40:50.490Z,1.70
2019-03-04T02:43:17.569Z,1.33
2019-03-04T02:45:44.184Z,1.90
2019-03-04T02:48:10.722Z,1.63
2019-03-04T02:50:37.248Z,1.30
2019-03-04T02:53:03.764Z,1.40
2019-03-04T02:55:30.393Z,1.33
2019-03-04T02:57:56.919Z,1.20
2019-03-04T03:00:23.702Z,1.47
2019-03-04T03:02:50.564Z,1.57
2019-03-04T03:05:17.313Z,1.40
2019-03-04T03:07:44.012Z,1.60
2019-03-04T03:10:10.854Z,1.40
2019-03-04T03:12:37.998Z,1.20
2019-03-04T03:15:05.062Z,1.77
2019-03-04T03:17:31.666Z,1.20
2019-03-04T03:19:58.159Z,1.47
2019-03-04T03:22:25.815Z,1.53
2019-03-04T03:24:52.375Z,1.40
2019-03-04T03:27:18.980Z,1.70
2019-03-04T03:29:46.119Z,1.27
2019-03-04T03:32:12.928Z,1.77
2019-03-04T03:34:39.621Z,1.53
2019-03-04T03:37:06.131Z,1.50
2019-03-04T03:39:33.252Z,1.70
2019-03-04T03:41:59.869Z,1.47
2019-03-04T03:44:26.404Z,1.40
2019-03-04T03:46:52.968Z,1.30
2019-03-04T03:49:19.719Z,1.80
2019-03-04T03:51:46.674Z,1.47
2019-03-04T03:54:13.502Z,1.17
2019-03-04T03:56:40.014Z,1.13
2019-03-04T03:59:06.754Z,1.37
2019-03-04T04:01:33.634Z,1.93
2019-03-04T04:04:00.237Z,1.40
2019-03-04T04:06:27.108Z,1.40
2019-03-04T04:08:53.855Z,1.33
2019-03-04T04:11:20.828Z,1.53
2019-03-04T04:13:47.488Z,1.60
2019-03-04T04:16:14.080Z,1.10
2019-03-04T04:18:40.751Z,1.30
2019-03-04T04:21:07.285Z,1.40
2019-03-04T04:23:34.163Z,1.43
2019-03-04T04:26:01.157Z,1.27
2019-03-04T04:28:29.609Z,1.37
2019-03-04T04:30:56.139Z,1.77
2019-03-04T04:33:23.840Z,1.47
2019-03-04T04:35:53.451Z,1.43
2019-03-04T04:38:20.027Z,1.20
2019-03-04T04:40:46.952Z,1.17
2019-03-04T04:43:13.713Z,1.30
2019-03-04T04:45:43.253Z,1.27
2019-03-04T04:48:11.967Z,1.53
2019-03-04T04:50:38.484Z,1.30
2019-03-04T04:53:05.053Z,1.40
2019-03-04T04:55:31.962Z,1.33
2019-03-04T04:57:58.586Z,1.40
2019-03-04T05:00:25.137Z,1.60
2019-03-04T05:02:51.898Z,1.30
2019-03-04T05:05:19.032Z,1.30
2019-03-04T05:07:45.938Z,1.33
2019-03-04T05:10:14.539Z,1.20
2019-03-04T05:12:41.599Z,1.20
2019-03-04T05:15:09.274Z,1.53
2019-03-04T05:17:35.923Z,1.10
2019-03-04T05:20:03.164Z,1.30
2019-03-04T05:22:29.770Z,1.50
2019-03-04T05:24:56.444Z,1.37
2019-03-04T05:27:23.194Z,1.30
2019-03-04T05:29:51.411Z,1.40
2019-03-04T05:32:18.391Z,1.57
2019-03-04T05:34:45.018Z,1.37
2019-03-04T05:37:11.746Z,1.47
2019-03-04T05:39:38.496Z,1.50
2019-03-04T05:42:05.357Z,1.40
2019-03-04T05:44:32.045Z,1.27
2019-03-04T05:46:58.549Z,1.60
2019-03-04T05:49:25.274Z,1.23
2019-03-04T05:51:52.034Z,1.60
2019-03-04T05:54:18.683Z,1.43
2019-03-04T05:56:46.631Z,1.47
2019-03-04T05:59:19.736Z,1.33
2019-03-04T06:01:49.595Z,0.97
2019-03-04T06:04:16.254Z,1.30
2019-03-04T06:06:48.931Z,1.50
2019-03-04T06:09:15.826Z,1.40
2019-03-04T06:11:42.539Z,1.30
2019-03-04T06:14:09.400Z,1.23
2019-03-04T06:16:46.808Z,1.33
2019-03-04T06:19:06.568Z,1.60
2019-03-04T06:21:33.657Z,1.77
2019-03-04T06:24:01.566Z,1.30
2019-03-04T06:26:28.355Z,1.40
2019-03-04T06:28:55.995Z,1.40
2019-03-04T06:31:22.725Z,1.90
2019-03-04T06:33:49.488Z,1.67
2019-03-04T06:36:16.315Z,1.30
2019-03-04T06:38:43.261Z,1.60
2019-03-04T06:41:10.210Z,1.30
2019-03-04T06:43:37.077Z,1.93
2019-03-04T06:46:03.768Z,1.37
2019-03-04T06:48:34.498Z,1.30
2019-03-04T06:51:05.466Z,1.20
2019-03-04T06:54:02.828Z,1.40
2019-03-04T06:56:36.473Z,1.20
2019-03-04T06:59:25.598Z,1.10
2019-03-04T07:01:55.544Z,1.40
2019-03-04T07:04:30.689Z,1.40
2019-03-04T07:06:57.706Z,1.80
2019-03-04T07:09:24.695Z,1.10
2019-03-04T07:11:52.172Z,1.40
2019-03-04T07:14:19.261Z,1.30
2019-03-04T07:16:48.842Z,1.33
2019-03-04T07:19:19.890Z,1.60
2019-03-04T07:21:48.128Z,1.40
2019-03-04T07:24:14.902Z,1.47
2019-03-04T07:26:41.489Z,1.10
2019-03-04T07:29:08.161Z,1.37
2019-03-04T07:31:35.002Z,1.43
2019-03-04T07:34:01.955Z,1.80
2019-03-04T07:36:28.751Z,1.23
2019-03-04T07:38:57.087Z,1.00
2019-03-04T07:41:24.539Z,1.33
2019-03-04T07:43:51.378Z,1.23
2019-03-04T07:46:18.303Z,1.30
2019-03-04T07:48:45.035Z,1.43
2019-03-04T07:51:12.796Z,1.67
2019-03-04T07:53:46.389Z,1.40
2019-03-04T07:56:09.171Z,1.30
2019-03-04T07:58:38.271Z,1.70
2019-03-04T08:01:05.023Z,1.63
2019-03-04T08:03:32.041Z,1.30
2019-03-04T08:05:59.281Z,1.83
2019-03-04T08:08:25.943Z,1.33
2019-03-04T08:11:46.698Z,1.50
2019-03-04T08:14:13.378Z,1.47
2019-03-04T08:16:40.455Z,1.00
2019-03-04T08:19:07.153Z,1.53
2019-03-04T08:21:33.771Z,1.37
2019-03-04T08:24:01.397Z,1.83
2019-03-04T08:26:28.231Z,1.57
2019-03-04T08:28:54.858Z,1.40
2019-03-04T08:31:23.951Z,1.60
2019-03-04T08:33:53.459Z,1.10
2019-03-04T08:36:20.043Z,1.70
2019-03-04T08:38:47.932Z,1.20
2019-03-04T08:41:14.500Z,1.20
2019-03-04T08:43:41.476Z,0.90
2019-03-04T08:46:08.740Z,0.97
2019-03-04T08:48:35.517Z,1.10
2019-03-04T08:51:02.522Z,1.27
2019-03-04T08:53:31.069Z,0.93
2019-03-04T08:55:57.808Z,1.10
2019-03-04T08:58:24.850Z,1.07
2019-03-04T09:00:51.760Z,1.37
2019-03-04T09:03:18.959Z,0.90
2019-03-04T09:05:45.692Z,0.60
2019-03-04T09:08:14.277Z,0.90
2019-03-04T09:10:41.287Z,0.97
2019-03-04T09:13:08.107Z,1.00
2019-03-04T09:15:34.824Z,1.03
2019-03-04T09:18:01.358Z,0.90
2019-03-04T09:20:28.344Z,0.83
2019-03-04T09:22:55.143Z,0.80
2019-03-04T09:25:30.932Z,1.40
2019-03-04T09:27:57.973Z,0.80
2019-03-04T09:30:29.137Z,0.80
2019-03-04T09:32:56.133Z,0.80
2019-03-04T09:35:23.006Z,1.00
2019-03-04T09:37:50.063Z,1.10
2019-03-04T09:40:16.795Z,1.00
2019-03-04T09:42:43.885Z,0.90
2019-03-04T09:45:11.821Z,1.10
2019-03-04T09:47:38.818Z,1.03
2019-03-04T09:50:07.999Z,0.83
2019-03-04T09:52:34.812Z,0.90
2019-03-04T09:55:01.978Z,1.00
2019-03-04T09:57:29.058Z,1.00
2019-03-04T09:59:56.215Z,0.87
2019-03-04T10:02:29.632Z,0.70
2019-03-04T10:05:16.752Z,1.27
2019-03-04T10:08:32.964Z,0.83
2019-03-04T10:11:27.285Z,0.93
2019-03-04T10:14:03.791Z,1.27
2019-03-04T10:17:14.468Z,1.00
2019-03-04T10:20:20.275Z,1.00
2019-03-04T10:23:03.066Z,0.80
2019-03-04T10:25:52.221Z,1.00
2019-03-04T10:29:11.821Z,0.93
2019-03-04T10:32:10.501Z,1.13
2019-03-04T10:35:12.936Z,0.83
2019-03-04T10:38:22.298Z,0.80
2019-03-04T10:41:21.404Z,0.60
2019-03-04T10:44:13.786Z,0.70
2019-03-04T10:47:00.270Z,0.43
2019-03-04T10:49:31.281Z,0.40
2019-03-04T10:51:58.153Z,0.33
2019-03-04T10:54:24.761Z,0.60
2019-03-04T10:56:51.679Z,0.50
2019-03-04T10:59:18.380Z,0.50
2019-03-04T11:01:45.219Z,0.50
2019-03-04T11:04:11.921Z,0.50
2019-03-04T11:06:38.771Z,1.00
2019-03-04T11:09:06.802Z,0.70
2019-03-04T11:11:33.923Z,0.53
2019-03-04T11:14:00.525Z,0.67
2019-03-04T11:16:27.647Z,0.60
2019-03-04T11:18:54.551Z,0.60
2019-03-04T11:21:21.291Z,0.70
2019-03-04T11:23:49.052Z,0.57
2019-03-04T11:26:15.788Z,0.57
2019-03-04T11:28:42.776Z,0.60
2019-03-04T11:31:09.511Z,0.70
2019-03-04T11:33:36.039Z,0.67
2019-03-04T11:36:05.539Z,0.57
2019-03-04T11:38:40.560Z,0.70
2019-03-04T11:41:11.723Z,0.70
2019-03-04T11:43:38.392Z,0.50
2019-03-04T11:46:05.158Z,0.70
2019-03-04T11:48:32.125Z,0.50
2019-03-04T11:50:58.786Z,0.80
2019-03-04T11:53:25.569Z,0.60
2019-03-04T11:55:53.517Z,0.73
2019-03-04T11:58:21.411Z,0.73
2019-03-04T12:00:56.652Z,0.70
2019-03-04T12:03:23.758Z,0.63
2019-03-04T12:05:50.419Z,0.63
2019-03-04T12:08:17.177Z,0.50
2019-03-04T12:10:43.829Z,0.70
2019-03-04T12:13:10.553Z,0.70
2019-03-04T12:15:37.268Z,0.70
2019-03-04T12:18:03.886Z,0.77
2019-03-04T12:20:30.460Z,0.77
2019-03-04T12:22:57.213Z,0.50
2019-03-04T12:25:24.199Z,0.90
2019-03-04T12:27:51.217Z,0.50
2019-03-04T12:30:18.041Z,0.87
2019-03-04T12:32:45.530Z,0.83
2019-03-04T12:35:12.894Z,0.63
2019-03-04T12:37:42.713Z,0.70
2019-03-04T12:40:10.637Z,1.07
2019-03-04T12:42:37.496Z,1.57
2019-03-04T12:45:04.554Z,0.70
2019-03-04T12:47:31.197Z,1.00
2019-03-04T12:49:57.918Z,0.87
2019-03-04T12:52:24.663Z,0.70
2019-03-04T12:55:01.808Z,0.60
2019-03-04T12:57:28.624Z,0.60
2019-03-04T12:59:56.767Z,0.53
2019-03-04T13:02:32.728Z,0.53
2019-03-04T13:05:01.550Z,0.60
2019-03-04T13:07:29.059Z,0.80
2019-03-04T13:09:58.171Z,0.60
2019-03-04T13:12:24.978Z,0.50
2019-03-04T13:14:52.384Z,0.40
2019-03-04T13:17:20.209Z,0.50
2019-03-04T13:20:03.089Z,0.60
2019-03-04T13:22:31.372Z,0.77
2019-03-04T13:25:11.890Z,0.57
2019-03-04T13:27:32.074Z,0.57
2019-03-04T13:29:59.048Z,0.57
2019-03-04T13:32:25.971Z,1.73
2019-03-04T13:34:52.562Z,0.87
2019-03-04T13:37:19.472Z,0.70
2019-03-04T13:39:46.191Z,0.33
2019-03-04T13:42:14.154Z,1.80
2019-03-04T13:44:40.911Z,0.40
2019-03-04T13:47:08.379Z,0.47
2019-03-04T13:49:35.432Z,0.40
2019-03-04T13:52:02.225Z,0.30
2019-03-04T13:54:29.002Z,0.50
2019-03-04T13:56:57.460Z,0.50
2019-03-04T13:59:24.238Z,0.30
2019-03-04T14:01:51.000Z,0.50
2019-03-04T14:04:17.782Z,0.87
2019-03-04T14:06:45.163Z,0.67
2019-03-04T14:09:14.345Z,1.00
2019-03-04T14:11:41.188Z,0.53
2019-03-04T14:14:11.833Z,0.57
2019-03-04T14:16:42.690Z,1.23
2019-03-04T14:19:14.546Z,0.60
2019-03-04T14:21:47.795Z,0.50
2019-03-04T14:24:18.568Z,0.30
2019-03-04T14:26:50.093Z,0.40
2019-03-04T14:29:20.816Z,0.50
2019-03-04T14:31:47.889Z,0.40
2019-03-04T14:34:14.850Z,0.50
2019-03-04T14:36:42.493Z,0.70
2019-03-04T14:39:13.759Z,0.50
2019-03-04T14:41:41.710Z,0.80
2019-03-04T14:44:08.579Z,0.43
2019-03-04T14:46:35.361Z,0.37
2019-03-04T14:49:02.224Z,0.53
2019-03-04T14:51:28.992Z,0.70
2019-03-04T14:53:55.987Z,0.33
2019-03-04T14:56:22.891Z,0.57
2019-03-04T14:58:49.773Z,0.50
2019-03-04T15:01:16.616Z,0.50
2019-03-04T15:03:43.342Z,0.40
2019-03-04T15:06:11.561Z,0.50
2019-03-04T15:08:41.581Z,0.40
2019-03-04T15:11:08.620Z,0.70
2019-03-04T15:13:41.233Z,0.60
2019-03-04T15:16:09.141Z,0.73
2019-03-04T15:18:35.878Z,0.40
2019-03-04T15:21:03.755Z,0.37
2019-03-04T15:23:30.417Z,0.47
2019-03-04T15:25:57.164Z,1.00
2019-03-04T15:28:24.132Z,0.30
2019-03-04T15:30:53.256Z,0.40
2019-03-04T15:33:20.892Z,0.33
2019-03-04T15:35:47.585Z,0.27
2019-03-04T15:38:14.346Z,0.70
2019-03-04T15:40:41.192Z,0.37
2019-03-04T15:43:08.151Z,0.30
2019-03-04T15:45:35.119Z,0.40
2019-03-04T15:48:01.658Z,0.43
2019-03-04T15:50:28.368Z,0.37
2019-03-04T15:52:55.696Z,0.27
2019-03-04T15:55:22.603Z,0.40
2019-03-04T15:57:51.074Z,0.40
2019-03-04T16:00:18.407Z,0.30
2019-03-04T16:02:45.263Z,0.70
2019-03-04T16:05:12.052Z,0.30
2019-03-04T16:07:38.889Z,0.50
2019-03-04T16:10:07.687Z,0.47
2019-03-04T16:12:36.366Z,1.03
2019-03-04T16:15:04.304Z,1.07
2019-03-04T16:17:31.514Z,0.80
2019-03-04T16:19:58.600Z,0.60
2019-03-04T16:22:27.636Z,0.40
2019-03-04T16:24:54.219Z,0.60
2019-03-04T16:27:20.864Z,0.60
2019-03-04T16:29:47.793Z,0.40
2019-03-04T16:32:14.754Z,0.50
2019-03-04T16:34:41.998Z,0.40
2019-03-04T16:37:08.718Z,0.50
2019-03-04T16:39:35.557Z,0.67
2019-03-04T16:42:03.585Z,0.57
2019-03-04T16:44:31.276Z,0.60
2019-03-04T16:46:57.945Z,0.43
2019-03-04T16:49:24.667Z,0.80
2019-03-04T16:51:53.887Z,1.07
2019-03-04T16:54:20.976Z,0.73
2019-03-04T16:56:47.704Z,0.33
2019-03-04T16:59:15.652Z,0.40
2019-03-04T17:01:43.029Z,0.60
2019-03-04T17:04:09.579Z,0.53
2019-03-04T17:06:39.072Z,0.80
2019-03-04T17:09:14.298Z,0.80
2019-03-04T17:11:41.065Z,1.00
2019-03-04T17:14:07.591Z,1.10
2019-03-04T17:16:34.204Z,1.00
2019-03-04T17:19:00.883Z,1.20
2019-03-04T17:21:28.027Z,1.20
2019-03-04T17:23:55.195Z,1.40
2019-03-04T17:26:21.783Z,1.20
2019-03-04T17:28:48.348Z,1.00
2019-03-04T17:31:15.177Z,1.00
2019-03-04T17:33:42.877Z,1.60
2019-03-04T17:36:09.445Z,1.50
2019-03-04T17:38:36.091Z,1.70
2019-03-04T17:41:02.639Z,1.40
2019-03-04T17:43:29.474Z,1.60
2019-03-04T17:45:56.351Z,1.83
2019-03-04T17:48:22.939Z,1.80
2019-03-04T17:50:49.485Z,1.67
2019-03-04T17:53:16.132Z,1.60
2019-03-04T17:55:42.715Z,1.77
2019-03-04T17:58:09.281Z,1.50
2019-03-04T18:00:37.412Z,1.60
2019-03-04T18:03:05.397Z,1.93
2019-03-04T18:05:32.030Z,2.77
2019-03-04T18:07:58.561Z,2.10
2019-03-04T18:10:25.149Z,2.73
2019-03-04T18:12:53.265Z,2.30
2019-03-04T18:15:20.389Z,3.10
2019-03-04T18:17:47.176Z,2.33
2019-03-04T18:20:14.803Z,2.40
2019-03-04T18:22:41.599Z,2.50
2019-03-04T18:25:12.479Z,2.67
2019-03-04T18:27:47.041Z,2.97
2019-03-04T18:30:29.895Z,2.70
2019-03-04T18:33:34.233Z,3.47
2019-03-04T18:36:18.448Z,2.97
2019-03-04T18:39:19.212Z,3.40
2019-03-04T18:42:09.301Z,3.40
2019-03-04T18:45:08.817Z,4.10
2019-03-04T18:48:15.982Z,2.93
2019-03-04T18:50:42.764Z,3.53
2019-03-04T18:53:09.577Z,3.97
2019-03-04T18:55:37.626Z,3.57
2019-03-04T18:58:04.309Z,3.70
2019-03-04T19:00:31.945Z,3.17
2019-03-04T19:02:58.674Z,3.00
2019-03-04T19:05:25.670Z,3.47
2019-03-04T19:07:52.333Z,3.37
2019-03-04T19:10:19.121Z,3.33
2019-03-04T19:12:46.144Z,3.43
2019-03-04T19:15:12.858Z,3.50
2019-03-04T19:17:43.671Z,3.23
2019-03-04T19:20:11.425Z,3.10
2019-03-04T19:22:38.424Z,2.90
2019-03-04T19:25:05.706Z,3.47
2019-03-04T19:27:32.697Z,3.10
2019-03-04T19:29:59.607Z,3.63
2019-03-04T19:32:26.378Z,2.53
2019-03-04T19:34:53.066Z,3.70
2019-03-04T19:37:19.875Z,3.40
2019-03-04T19:39:46.758Z,2.47
2019-03-04T19:42:14.811Z,2.60
2019-03-04T19:44:41.981Z,2.87
2019-03-04T19:47:08.832Z,2.77
2019-03-04T19:49:35.652Z,3.20
2019-03-04T19:52:03.648Z,3.10
2019-03-04T19:54:30.583Z,3.07
2019-03-04T19:56:57.378Z,2.60
2019-03-04T19:59:24.814Z,2.70
2019-03-04T20:01:54.045Z,3.20
2019-03-04T20:04:20.945Z,3.07
2019-03-04T20:06:48.157Z,3.03
2019-03-04T20:09:14.970Z,3.37
2019-03-04T20:11:41.991Z,2.97
2019-03-04T20:14:09.138Z,3.20
2019-03-04T20:16:36.039Z,3.77
2019-03-04T20:19:03.230Z,3.23
2019-03-04T20:21:29.953Z,3.37
2019-03-04T20:23:57.013Z,2.90
2019-03-04T20:26:24.030Z,3.23
2019-03-04T20:28:51.065Z,3.37
2019-03-04T20:31:18.914Z,3.67
2019-03-04T20:33:47.335Z,3.00
2019-03-04T20:36:30.844Z,2.87
2019-03-04T20:39:18.365Z,2.90
2019-03-04T20:41:49.313Z,3.00
2019-03-04T20:44:21.004Z,2.70
2019-03-04T20:46:57.161Z,2.67
2019-03-04T20:49:26.103Z,2.53
2019-03-04T20:52:03.531Z,2.30
2019-03-04T20:54:32.820Z,2.57
2019-03-04T20:57:07.947Z,2.57
2019-03-04T20:59:38.540Z,2.87
2019-03-04T21:02:18.740Z,2.70
2019-03-04T21:05:00.457Z,2.63
2019-03-04T21:07:28.022Z,1.97
2019-03-04T21:09:54.985Z,2.30
2019-03-04T21:12:23.860Z,3.20
2019-03-04T21:15:18.925Z,3.57
2019-03-04T21:17:51.814Z,2.60
2019-03-04T21:20:19.960Z,2.43
2019-03-04T21:22:46.990Z,2.30
2019-03-04T21:25:33.196Z,2.40
2019-03-04T21:28:10.360Z,2.30
2019-03-04T21:31:13.473Z,2.27
2019-03-04T21:34:11.272Z,2.03
2019-03-04T21:37:11.661Z,2.30
2019-03-04T21:39:45.391Z,2.47
2019-03-04T21:42:22.004Z,2.60
2019-03-04T21:45:36.738Z,3.40
2019-03-04T21:48:11.213Z,1.60
2019-03-04T21:50:47.113Z,2.20
2019-03-04T21:53:18.058Z,2.10
2019-03-04T21:56:15.783Z,2.23
2019-03-04T21:58:43.976Z,1.60
2019-03-04T22:01:23.706Z,2.00
2019-03-04T22:03:50.642Z,2.03
2019-03-04T22:06:17.775Z,1.87
2019-03-04T22:08:44.385Z,2.37
2019-03-04T22:11:11.078Z,1.83
2019-03-04T22:13:37.728Z,2.47
2019-03-04T22:16:04.525Z,2.03
2019-03-04T22:18:32.036Z,1.80
2019-03-04T22:20:58.855Z,2.07
2019-03-04T22:23:26.242Z,2.60
2019-03-04T22:26:01.904Z,2.17
2019-03-04T22:28:23.766Z,1.80
2019-03-04T22:30:53.271Z,1.50
2019-03-04T22:33:20.415Z,2.20
2019-03-04T22:35:47.068Z,1.80
2019-03-04T22:38:13.866Z,2.00
2019-03-04T22:40:40.698Z,1.77
2019-03-04T22:43:07.332Z,1.83
2019-03-04T22:45:33.994Z,2.40
2019-03-04T22:48:00.624Z,1.90
2019-03-04T22:50:30.165Z,1.40
2019-03-04T22:52:56.845Z,1.70
2019-03-04T22:55:28.609Z,1.57
2019-03-04T22:57:55.415Z,1.50
2019-03-04T23:01:29.004Z,1.77
2019-03-04T23:04:20.087Z,1.30
2019-03-04T23:06:51.425Z,1.43
2019-03-04T23:09:18.596Z,1.53
2019-03-04T23:11:50.331Z,1.70
2019-03-04T23:14:21.834Z,1.40
2019-03-04T23:16:49.378Z,1.80
2019-03-04T23:19:15.957Z,1.63
2019-03-04T23:21:42.568Z,2.03
2019-03-04T23:24:09.242Z,1.70
2019-03-04T23:26:36.014Z,1.90
2019-03-04T23:29:02.785Z,1.40
2019-03-04T23:31:29.865Z,1.50
2019-03-04T23:33:56.669Z,1.43
2019-03-04T23:36:23.359Z,1.97
2019-03-04T23:38:49.921Z,1.30
2019-03-04T23:41:21.290Z,2.50
2019-03-04T23:46:28.860Z,1.40
2019-03-04T23:48:55.455Z,1.77
2019-03-04T23:51:22.004Z,2.13
2019-03-04T23:53:49.585Z,2.10
2019-03-04T23:56:16.554Z,2.30
2019-03-04T23:58:43.198Z,2.03
